Time;durP1;ratioP1;P1;durP2;ratioP2;P2;SDS_P1;SDS_P2;PMS_P1;PMS_P2;Temp;Humidity;BMP_temperature;BMP_pressure;BME280_temperature;BME280_humidity;BME280_pressure;Samples;Min_cycle;Max_cycle;Signal;HPM_P1;HPM_P2
2021/12/28 00:01:30;;;;;;;89.10;42.42;;;5.00;98.60;;;;;;5136473;27;20066;-77
2021/12/28 00:03:56;;;;;;;80.93;41.20;;;5.00;98.60;;;;;;5136566;27;20083;-77
2021/12/28 00:06:22;;;;;;;93.65;42.80;;;5.00;98.80;;;;;;5136167;27;20049;-77
2021/12/28 00:08:49;;;;;;;107.35;46.40;;;5.00;98.80;;;;;;5119558;27;20121;-77
2021/12/28 00:11:15;;;;;;;104.32;47.10;;;5.00;98.70;;;;;;5136321;27;20046;-77
2021/12/28 00:13:43;;;;;;;119.70;53.03;;;5.00;98.70;;;;;;5136657;27;20398;-77
2021/12/28 00:18:35;;;;;;;73.65;40.22;;;5.00;98.80;;;;;;5136233;27;20042;-77
2021/12/28 00:21:04;;;;;;;89.18;42.55;;;5.10;98.80;;;;;;5136506;27;20038;-78
2021/12/28 00:23:37;;;;;;;102.78;45.53;;;5.10;98.60;;;;;;5119260;27;20078;-78
2021/12/28 00:26:08;;;;;;;92.65;45.42;;;5.20;98.70;;;;;;5136149;27;20498;-78
2021/12/28 00:28:34;;;;;;;104.85;48.92;;;5.20;98.80;;;;;;5119533;27;20428;-78
2021/12/28 00:31:00;;;;;;;110.78;48.63;;;5.20;98.80;;;;;;5136361;27;20038;-77
2021/12/28 00:33:26;;;;;;;109.18;49.20;;;5.30;98.90;;;;;;5136138;27;20505;-78
2021/12/28 00:35:53;;;;;;;117.63;50.28;;;5.30;98.80;;;;;;5101924;27;20031;-77
2021/12/28 00:38:23;;;;;;;92.78;46.05;;;5.40;98.90;;;;;;5118932;27;20066;-78
2021/12/28 00:40:52;;;;;;;126.70;53.03;;;5.40;98.80;;;;;;5135971;27;20039;-77
2021/12/28 00:43:18;;;;;;;109.07;48.80;;;5.40;98.90;;;;;;5136089;27;20095;-79
2021/12/28 00:45:44;;;;;;;131.20;54.58;;;5.40;98.80;;;;;;5135943;27;20034;-78
2021/12/28 00:48:10;;;;;;;118.57;49.33;;;5.60;98.90;;;;;;5135994;27;20066;-78
2021/12/28 00:50:36;;;;;;;150.13;59.63;;;5.60;98.80;;;;;;5135953;27;20077;-78
2021/12/28 00:53:03;;;;;;;129.50;53.25;;;5.60;98.90;;;;;;5136184;27;20038;-78
2021/12/28 00:55:29;;;;;;;133.32;53.25;;;5.70;99.00;;;;;;5118984;27;20114;-78
2021/12/28 00:57:55;;;;;;;142.90;55.78;;;5.70;98.90;;;;;;5118784;27;20478;-78
2021/12/28 01:00:27;;;;;;;137.38;54.78;;;5.70;98.80;;;;;;5118999;27;20038;-79
2021/12/28 01:02:53;;;;;;;131.45;52.17;;;5.70;98.90;;;;;;5135623;27;20502;-79
2021/12/28 01:05:19;;;;;;;130.75;51.80;;;5.70;98.80;;;;;;5135553;27;20086;-79
2021/12/28 01:07:45;;;;;;;149.63;56.05;;;5.80;98.80;;;;;;5139532;27;20482;-79
2021/12/28 01:10:17;;;;;;;111.22;48.20;;;5.80;98.80;;;;;;5105574;27;20046;-79
2021/12/28 01:12:44;;;;;;;149.82;54.90;;;5.90;98.70;;;;;;5139845;27;20092;-78
2021/12/28 01:15:11;;;;;;;150.05;55.97;;;5.90;98.90;;;;;;5139672;27;20043;-78
2021/12/28 01:17:38;;;;;;;201.40;75.03;;;6.00;98.80;;;;;;5122513;27;20505;-78
2021/12/28 01:20:07;;;;;;;140.77;52.20;;;6.00;98.90;;;;;;5139550;27;20042;-78
2021/12/28 01:22:33;;;;;;;171.35;60.58;;;6.00;98.80;;;;;;5139649;27;20038;-78
2021/12/28 01:24:58;;;;;;;249.30;75.68;;;6.00;98.90;;;;;;5139764;27;20440;-78
2021/12/28 01:27:24;;;;;;;184.43;59.05;;;6.00;98.80;;;;;;5139393;27;20092;-79
2021/12/28 01:29:50;;;;;;;218.15;66.40;;;6.10;98.90;;;;;;5139728;27;20035;-78
2021/12/28 01:32:16;;;;;;;216.90;62.55;;;6.10;98.80;;;;;;5122191;27;20117;-79
2021/12/28 01:34:43;;;;;;;256.67;71.65;;;6.10;98.70;;;;;;5122160;27;20118;-79
2021/12/28 01:37:10;;;;;;;147.77;51.78;;;6.10;98.80;;;;;;5139590;27;20042;-79
2021/12/28 01:39:35;;;;;;;236.07;66.50;;;6.10;98.70;;;;;;5122190;27;20047;-79
2021/12/28 01:42:05;;;;;;;309.33;75.93;;;6.10;98.70;;;;;;5138850;27;20045;-79
2021/12/28 01:44:31;;;;;;;217.65;60.75;;;6.10;98.70;;;;;;5122547;27;20117;-79
2021/12/28 01:46:57;;;;;;;228.10;63.28;;;6.10;98.70;;;;;;5121983;27;20122;-79
2021/12/28 01:49:23;;;;;;;271.33;66.68;;;6.10;98.70;;;;;;5122357;27;20035;-79
2021/12/28 01:51:49;;;;;;;144.77;51.25;;;6.10;98.90;;;;;;5104896;27;20470;-78
2021/12/28 01:54:15;;;;;;;172.68;54.92;;;6.10;98.70;;;;;;5138945;27;20482;-79
2021/12/28 01:56:44;;;;;;;214.02;60.55;;;6.10;98.80;;;;;;5139151;27;20106;-79
2021/12/28 01:59:12;;;;;;;229.40;60.47;;;6.10;98.70;;;;;;5139154;27;20043;-79
2021/12/28 02:01:39;;;;;;;249.90;65.65;;;6.10;98.60;;;;;;5138905;27;20454;-78
2021/12/28 02:04:17;;;;;;;204.80;57.03;;;6.10;98.70;;;;;;5105024;27;20031;-79
2021/12/28 02:06:43;;;;;;;234.98;61.25;;;6.20;98.60;;;;;;5132949;27;20043;-79
2021/12/28 02:09:10;;;;;;;266.15;67.93;;;6.10;98.80;;;;;;5135317;27;20039;-80
2021/12/28 02:11:37;;;;;;;231.73;64.03;;;6.10;98.70;;;;;;5135136;27;20126;-79
2021/12/28 02:14:05;;;;;;;287.05;72.63;;;6.20;98.90;;;;;;5135098;27;20051;-79
2021/12/28 02:16:32;;;;;;;311.02;71.05;;;6.20;98.90;;;;;;5118354;27;20127;-79
2021/12/28 02:18:58;;;;;;;318.70;74.80;;;6.20;99.00;;;;;;5134191;27;20444;-79
2021/12/28 02:21:25;;;;;;;329.48;75.90;;;6.20;99.00;;;;;;5134877;27;20035;-79
2021/12/28 02:23:51;;;;;;;278.08;68.20;;;6.20;98.90;;;;;;5118050;27;20047;-79
2021/12/28 02:26:17;;;;;;;271.10;66.70;;;6.20;99.00;;;;;;5134879;27;20036;-80
2021/12/28 02:28:43;;;;;;;193.27;57.60;;;6.20;99.10;;;;;;5100717;27;20035;-79
2021/12/28 02:31:09;;;;;;;204.65;61.92;;;6.20;99.00;;;;;;5134806;27;20082;-79
2021/12/28 02:33:35;;;;;;;292.35;69.18;;;6.20;99.10;;;;;;5117870;27;20035;-79
2021/12/28 02:36:03;;;;;;;294.63;70.35;;;6.30;99.20;;;;;;5117787;27;20028;-80
2021/12/28 02:38:30;;;;;;;277.23;65.78;;;6.20;99.10;;;;;;5117592;27;20039;-79
2021/12/28 02:40:57;;;;;;;292.35;66.30;;;6.30;99.10;;;;;;5117445;27;20047;-79
2021/12/28 02:43:22;;;;;;;245.00;60.05;;;6.20;99.10;;;;;;5134523;27;20043;-79
2021/12/28 02:45:54;;;;;;;298.63;68.55;;;6.20;99.00;;;;;;5134422;27;20035;-80
2021/12/28 02:48:21;;;;;;;246.18;64.82;;;6.30;99.10;;;;;;5134501;27;20035;-79
2021/12/28 02:50:49;;;;;;;214.20;63.83;;;6.30;99.30;;;;;;5117309;27;20046;-79
2021/12/28 02:53:18;;;;;;;225.07;59.17;;;6.30;99.30;;;;;;5117272;27;20087;-79
2021/12/28 02:55:45;;;;;;;206.57;57.00;;;6.30;99.20;;;;;;5117096;27;20039;-78
2021/12/28 02:58:22;;;;;;;246.43;60.58;;;6.30;99.10;;;;;;5100186;27;20050;-80
2021/12/28 03:01:10;;;;;;;275.15;67.65;;;6.30;99.20;;;;;;5134240;27;20050;-79
2021/12/28 03:03:37;;;;;;;215.15;60.40;;;6.30;99.20;;;;;;5133829;27;20496;-78
2021/12/28 03:06:06;;;;;;;170.73;52.90;;;6.30;99.30;;;;;;5133975;27;20055;-79
2021/12/28 03:08:34;;;;;;;216.50;59.65;;;6.40;99.10;;;;;;5134165;27;20043;-79
2021/12/28 03:11:01;;;;;;;191.77;57.10;;;6.40;99.20;;;;;;5116849;27;20467;-79
2021/12/28 03:13:31;;;;;;;167.00;53.67;;;6.40;99.20;;;;;;5133993;27;20039;-80
2021/12/28 03:15:58;;;;;;;149.25;48.88;;;6.40;99.20;;;;;;5133908;27;20035;-79
2021/12/28 03:18:23;;;;;;;168.15;50.35;;;6.40;99.10;;;;;;5116768;27;20078;-79
2021/12/28 03:20:49;;;;;;;149.33;48.73;;;6.40;99.10;;;;;;5134027;27;20128;-80
2021/12/28 03:23:21;;;;;;;174.00;56.67;;;6.40;99.10;;;;;;5134066;27;20066;-79
2021/12/28 03:25:48;;;;;;;163.98;47.00;;;6.40;99.10;;;;;;5133650;27;20125;-79
2021/12/28 03:28:20;;;;;;;157.20;50.35;;;6.40;99.10;;;;;;5133620;27;20047;-79
2021/12/28 03:30:46;;;;;;;140.48;47.33;;;6.50;99.10;;;;;;5116726;27;20041;-79
2021/12/28 03:33:12;;;;;;;146.50;46.25;;;6.40;99.10;;;;;;5133604;27;20565;-78
2021/12/28 03:35:38;;;;;;;131.35;45.40;;;6.40;99.10;;;;;;5116585;27;20126;-79
2021/12/28 03:38:04;;;;;;;159.60;52.67;;;6.50;99.10;;;;;;5099569;27;20039;-79
2021/12/28 03:40:29;;;;;;;145.05;49.40;;;6.50;99.10;;;;;;5116364;27;20427;-79
2021/12/28 03:42:55;;;;;;;137.63;46.55;;;6.40;99.00;;;;;;5116277;27;20039;-80
2021/12/28 03:45:21;;;;;;;130.85;46.92;;;6.40;99.10;;;;;;5099554;27;20126;-78
2021/12/28 03:47:47;;;;;;;126.57;46.63;;;6.40;99.10;;;;;;5116447;27;20483;-78
2021/12/28 03:50:12;;;;;;;136.85;47.88;;;6.40;99.10;;;;;;5133278;27;20064;-80
2021/12/28 03:52:39;;;;;;;117.68;44.33;;;6.40;99.30;;;;;;5099280;27;20043;-79
2021/12/28 03:55:07;;;;;;;127.63;44.97;;;6.40;99.20;;;;;;5133114;27;20078;-80
2021/12/28 03:57:32;;;;;;;148.57;49.13;;;6.30;99.20;;;;;;5133088;27;20039;-79
2021/12/28 03:59:58;;;;;;;111.47;40.70;;;6.30;99.10;;;;;;5133097;27;20402;-79
2021/12/28 04:02:24;;;;;;;119.43;45.83;;;6.30;99.20;;;;;;5132981;27;20180;-78
2021/12/28 04:04:50;;;;;;;115.70;44.35;;;6.30;99.20;;;;;;5115858;27;20046;-79
2021/12/28 04:07:19;;;;;;;118.25;44.90;;;6.40;99.30;;;;;;5132937;27;20054;-79
2021/12/28 04:10:08;;;;;;;135.38;46.67;;;6.40;99.30;;;;;;5133239;27;20050;-79
2021/12/28 04:12:32;;;;;;;134.27;44.75;;;6.40;99.30;;;;;;5132472;27;20500;-78
2021/12/28 04:14:58;;;;;;;135.27;45.22;;;6.40;99.20;;;;;;5115764;27;20046;-79
2021/12/28 04:17:26;;;;;;;113.50;42.92;;;6.40;99.20;;;;;;5115751;27;20100;-79
2021/12/28 04:19:52;;;;;;;116.05;42.47;;;6.50;99.30;;;;;;5132834;27;20035;-79
2021/12/28 04:22:18;;;;;;;133.15;46.33;;;6.50;99.30;;;;;;5132848;27;20096;-78
2021/12/28 04:24:44;;;;;;;140.27;47.05;;;6.50;99.20;;;;;;5132832;27;20483;-78
2021/12/28 04:27:10;;;;;;;133.48;45.15;;;6.50;99.30;;;;;;5132799;27;20035;-79
2021/12/28 04:29:35;;;;;;;115.13;42.60;;;6.50;99.20;;;;;;5132616;27;20039;-78
2021/12/28 04:32:01;;;;;;;106.55;42.05;;;6.60;99.20;;;;;;5115594;27;20050;-79
2021/12/28 04:34:27;;;;;;;141.25;45.65;;;6.60;99.30;;;;;;5115764;28;20042;-79
2021/12/28 04:36:53;;;;;;;113.53;43.33;;;6.60;99.30;;;;;;5115606;28;20039;-79
2021/12/28 04:39:19;;;;;;;121.18;43.63;;;6.60;99.30;;;;;;5132984;28;20031;-78
2021/12/28 04:41:44;;;;;;;145.18;47.83;;;6.60;99.20;;;;;;5100726;27;20092;-79
2021/12/28 04:44:13;;;;;;;131.82;44.33;;;6.60;99.20;;;;;;5119754;27;20035;-79
2021/12/28 04:46:39;;;;;;;139.00;46.33;;;6.60;99.20;;;;;;5120070;27;20076;-78
2021/12/28 04:49:05;;;;;;;123.13;42.60;;;6.60;99.20;;;;;;5136864;27;20031;-80
2021/12/28 04:51:30;;;;;;;131.65;43.97;;;6.50;99.20;;;;;;5119595;27;20172;-79
2021/12/28 04:53:59;;;;;;;139.35;44.00;;;6.50;99.10;;;;;;5119618;27;20046;-79
2021/12/28 04:56:25;;;;;;;118.82;42.00;;;6.40;99.20;;;;;;5136854;27;20078;-79
2021/12/28 04:58:51;;;;;;;130.02;43.80;;;6.40;99.20;;;;;;5136806;27;20547;-79
2021/12/28 05:01:17;;;;;;;159.45;48.25;;;6.40;99.20;;;;;;5119370;27;20092;-79
2021/12/28 05:03:42;;;;;;;129.77;41.70;;;6.30;99.20;;;;;;5119494;27;20122;-80
2021/12/28 05:06:08;;;;;;;135.73;45.65;;;6.30;99.20;;;;;;5136226;27;20055;-79
2021/12/28 05:08:34;;;;;;;100.10;37.50;;;6.20;99.20;;;;;;5136689;27;20047;-78
2021/12/28 05:11:00;;;;;;;94.38;37.65;;;6.30;99.30;;;;;;5136445;27;20547;-78
2021/12/28 05:13:26;;;;;;;105.60;41.38;;;6.30;99.30;;;;;;5136561;27;20364;-78
2021/12/28 05:15:53;;;;;;;88.25;36.35;;;6.20;99.30;;;;;;5119152;27;20043;-78
2021/12/28 05:18:19;;;;;;;86.68;34.20;;;6.20;99.30;;;;;;5136294;27;20126;-79
2021/12/28 05:20:46;;;;;;;94.95;36.88;;;6.30;99.30;;;;;;5136251;27;20035;-79
2021/12/28 05:23:13;;;;;;;111.22;39.42;;;6.30;99.30;;;;;;5136066;27;20514;-79
2021/12/28 05:25:39;;;;;;;94.38;36.03;;;6.30;99.20;;;;;;5119304;27;20035;-79
2021/12/28 05:28:05;;;;;;;71.45;31.38;;;6.20;99.20;;;;;;5135945;27;20031;-79
2021/12/28 05:30:32;;;;;;;85.03;33.65;;;6.30;99.20;;;;;;5135938;27;20104;-79
2021/12/28 05:32:58;;;;;;;88.97;36.00;;;6.20;99.20;;;;;;5119162;27;20039;-79
2021/12/28 05:35:24;;;;;;;102.45;38.70;;;6.20;99.20;;;;;;5135832;27;20047;-79
2021/12/28 05:37:50;;;;;;;99.22;37.45;;;6.20;99.20;;;;;;5118766;27;20039;-79
2021/12/28 05:40:17;;;;;;;102.18;38.90;;;6.20;99.20;;;;;;5101680;27;20054;-79
2021/12/28 05:42:42;;;;;;;84.68;35.25;;;6.20;99.20;;;;;;5135702;27;20051;-79
2021/12/28 05:45:09;;;;;;;93.00;37.58;;;6.10;99.20;;;;;;5135670;27;20179;-79
2021/12/28 05:47:35;;;;;;;86.30;33.95;;;6.20;99.20;;;;;;5118675;27;20501;-79
2021/12/28 05:50:02;;;;;;;92.20;36.95;;;6.10;99.20;;;;;;5135897;27;20031;-79
2021/12/28 05:52:28;;;;;;;92.03;33.95;;;6.10;99.20;;;;;;5135528;27;20047;-79
2021/12/28 05:54:54;;;;;;;86.78;33.97;;;6.10;99.30;;;;;;5118292;27;20039;-78
2021/12/28 05:57:19;;;;;;;78.93;31.85;;;6.10;99.30;;;;;;5135435;27;20062;-78
2021/12/28 05:59:45;;;;;;;72.88;31.85;;;6.20;99.30;;;;;;5118312;27;20401;-79
2021/12/28 06:02:11;;;;;;;91.22;33.72;;;6.20;99.40;;;;;;5135495;27;20039;-79
2021/12/28 06:04:36;;;;;;;82.18;33.03;;;6.10;99.30;;;;;;5135475;27;20035;-79
2021/12/28 06:07:03;;;;;;;92.47;33.95;;;6.20;99.40;;;;;;5132996;27;20487;-78
2021/12/28 06:09:29;;;;;;;78.50;31.27;;;6.20;99.40;;;;;;5135142;27;20547;-80
2021/12/28 06:11:55;;;;;;;81.03;31.58;;;6.20;99.40;;;;;;5118371;27;20039;-79
2021/12/28 06:14:21;;;;;;;78.68;30.10;;;6.20;99.30;;;;;;5135389;27;20497;-78
2021/12/28 06:16:46;;;;;;;83.10;30.58;;;6.20;99.30;;;;;;5135136;27;20475;-79
2021/12/28 06:19:12;;;;;;;74.13;30.27;;;6.20;99.30;;;;;;5135077;27;20074;-79
2021/12/28 06:21:38;;;;;;;67.00;29.58;;;6.20;99.40;;;;;;5135091;27;20050;-80
2021/12/28 06:24:06;;;;;;;65.22;27.60;;;6.20;99.40;;;;;;5135217;27;20027;-79
2021/12/28 06:26:32;;;;;;;72.97;30.45;;;6.20;99.40;;;;;;5134837;27;20035;-79
2021/12/28 06:29:00;;;;;;;78.75;30.77;;;6.20;99.40;;;;;;5134847;27;20479;-80
2021/12/28 06:31:28;;;;;;;90.35;30.58;;;6.20;99.40;;;;;;5134861;27;20451;-79
2021/12/28 06:33:59;;;;;;;81.43;30.55;;;6.10;99.30;;;;;;5117980;27;20164;-78
2021/12/28 06:36:26;;;;;;;72.50;30.20;;;6.10;99.30;;;;;;5134656;27;20046;-78
2021/12/28 06:38:52;;;;;;;75.50;31.58;;;6.10;99.30;;;;;;5117484;27;20486;-78
2021/12/28 06:41:18;;;;;;;73.28;31.17;;;6.20;99.40;;;;;;5134706;27;20113;-79
2021/12/28 06:43:44;;;;;;;61.20;28.73;;;6.10;99.40;;;;;;5134612;27;20489;-79
2021/12/28 06:46:10;;;;;;;65.95;27.80;;;6.20;99.50;;;;;;5134635;27;20100;-79
2021/12/28 06:48:35;;;;;;;76.63;30.05;;;6.20;99.40;;;;;;5134827;27;20129;-80
2021/12/28 06:51:03;;;;;;;71.40;30.27;;;6.20;99.40;;;;;;5134438;27;20037;-79
2021/12/28 06:53:28;;;;;;;57.30;26.20;;;6.20;99.40;;;;;;5117573;27;20402;-80
2021/12/28 06:55:54;;;;;;;76.97;33.30;;;6.20;99.30;;;;;;5117193;27;20040;-79
2021/12/28 06:58:20;;;;;;;67.25;33.88;;;6.20;99.30;;;;;;5134500;27;20092;-79
2021/12/28 07:00:45;;;;;;;88.68;37.42;;;6.20;99.30;;;;;;5117464;27;20120;-80
2021/12/28 07:03:11;;;;;;;82.38;41.08;;;6.20;99.40;;;;;;5116879;27;20547;-79
2021/12/28 07:05:37;;;;;;;55.33;28.65;;;6.20;99.40;;;;;;5133186;27;20047;-79
2021/12/28 07:08:03;;;;;;;69.95;33.45;;;6.30;99.40;;;;;;5120628;27;20057;-79
2021/12/28 07:10:29;;;;;;;69.05;29.13;;;6.30;99.30;;;;;;5120652;27;20054;-79
2021/12/28 07:12:54;;;;;;;62.08;33.25;;;6.30;99.40;;;;;;5137744;27;20039;-79
2021/12/28 07:15:21;;;;;;;68.18;32.45;;;6.30;99.30;;;;;;5120246;27;20447;-77
2021/12/28 07:17:48;;;;;;;66.65;29.85;;;6.30;99.40;;;;;;5137345;27;20509;-78
2021/12/28 07:20:14;;;;;;;78.43;32.97;;;6.30;99.40;;;;;;5137612;27;20042;-79
2021/12/28 07:22:40;;;;;;;69.97;30.73;;;6.30;99.40;;;;;;5137389;27;20034;-78
2021/12/28 07:25:08;;;;;;;86.95;42.78;;;6.30;99.40;;;;;;5137409;27;20031;-79
2021/12/28 07:27:35;;;;;;;68.38;31.83;;;6.30;99.40;;;;;;5120431;27;20506;-78
2021/12/28 07:30:03;;;;;;;66.47;33.40;;;6.30;99.40;;;;;;5120282;27;20069;-78
2021/12/28 07:32:28;;;;;;;75.22;44.70;;;6.20;99.40;;;;;;5129745;27;20042;-78
2021/12/28 07:34:54;;;;;;;64.30;33.70;;;6.30;99.30;;;;;;5157266;27;20061;-79
2021/12/28 07:37:20;;;;;;;57.13;27.98;;;6.30;99.40;;;;;;5157695;27;20042;-79
2021/12/28 07:39:50;;;;;;;50.63;27.52;;;6.30;99.30;;;;;;5122853;27;20038;-78
2021/12/28 07:42:19;;;;;;;50.13;22.63;;;6.30;99.30;;;;;;5157179;27;20030;-78
2021/12/28 07:44:45;;;;;;;53.08;23.33;;;6.30;99.30;;;;;;5157591;27;20038;-79
2021/12/28 07:47:10;;;;;;;48.83;22.02;;;6.30;99.30;;;;;;5157594;27;20041;-79
2021/12/28 07:49:36;;;;;;;56.10;26.80;;;6.30;99.30;;;;;;5123387;27;20073;-79
2021/12/28 07:52:03;;;;;;;42.88;24.27;;;6.30;99.30;;;;;;5140633;27;20386;-79
2021/12/28 07:54:28;;;;;;;61.00;36.28;;;6.30;99.20;;;;;;5157332;27;20045;-80
2021/12/28 07:56:54;;;;;;;53.38;27.65;;;6.30;99.30;;;;;;5140504;27;20444;-81
2021/12/28 07:59:20;;;;;;;48.80;25.08;;;6.30;99.30;;;;;;5157588;27;20087;-79
2021/12/28 08:01:45;;;;;;;71.85;42.42;;;6.30;99.40;;;;;;5139925;27;20469;-80
2021/12/28 08:04:11;;;;;;;66.30;38.63;;;6.30;99.30;;;;;;5140042;27;20038;-80
2021/12/28 08:06:37;;;;;;;43.13;23.42;;;6.30;99.30;;;;;;5122480;27;20502;-80
2021/12/28 08:09:03;;;;;;;62.50;37.92;;;6.30;99.30;;;;;;5122759;27;20034;-80
2021/12/28 08:11:29;;;;;;;63.03;37.42;;;6.30;99.30;;;;;;5139700;27;20038;-79
2021/12/28 08:13:54;;;;;;;47.38;22.48;;;6.30;99.30;;;;;;5157031;27;20038;-80
2021/12/28 08:16:20;;;;;;;41.08;20.05;;;6.30;99.20;;;;;;5121761;27;20030;-79
2021/12/28 08:18:46;;;;;;;40.47;19.00;;;6.30;99.30;;;;;;5139785;27;20175;-80
2021/12/28 08:21:11;;;;;;;38.92;21.17;;;6.40;99.30;;;;;;5139755;27;20073;-79
2021/12/28 08:23:38;;;;;;;35.47;17.65;;;6.40;99.30;;;;;;5139495;27;20034;-81
2021/12/28 08:26:04;;;;;;;37.20;16.88;;;6.50;99.30;;;;;;5122508;27;20034;-81
2021/12/28 08:28:30;;;;;;;36.95;16.65;;;6.50;99.20;;;;;;5139649;27;20042;-80
2021/12/28 08:30:57;;;;;;;31.42;16.10;;;6.60;99.30;;;;;;5157186;27;20038;-81
2021/12/28 08:33:23;;;;;;;34.08;17.48;;;6.60;99.30;;;;;;5139603;27;20042;-79
2021/12/28 08:35:49;;;;;;;42.55;16.77;;;6.60;99.20;;;;;;5157074;27;20393;-80
2021/12/28 08:38:15;;;;;;;42.95;20.75;;;6.70;99.10;;;;;;5139620;27;20121;-80
2021/12/28 08:40:42;;;;;;;33.67;16.10;;;6.60;99.00;;;;;;5139602;27;20046;-81
2021/12/28 08:43:09;;;;;;;38.42;16.70;;;6.70;99.00;;;;;;5156803;27;20048;-79
2021/12/28 08:45:35;;;;;;;29.75;14.40;;;6.70;99.10;;;;;;5156468;27;20113;-80
2021/12/28 08:48:01;;;;;;;36.53;17.02;;;6.70;99.00;;;;;;5139730;27;20073;-81
2021/12/28 08:50:28;;;;;;;25.23;14.02;;;6.70;99.00;;;;;;5156998;27;20038;-79
2021/12/28 08:52:54;;;;;;;40.00;16.35;;;6.70;98.90;;;;;;5139477;27;20485;-80
2021/12/28 08:55:21;;;;;;;28.13;14.57;;;6.80;99.00;;;;;;5139617;27;20073;-79
2021/12/28 08:57:47;;;;;;;27.67;14.85;;;6.80;98.90;;;;;;5156680;27;20045;-78
2021/12/28 09:00:21;;;;;;;33.80;14.38;;;6.80;99.10;;;;;;5156623;27;20075;-79
2021/12/28 09:02:47;;;;;;;30.52;15.63;;;6.90;99.00;;;;;;5156595;27;20035;-79
2021/12/28 09:05:13;;;;;;;38.83;25.38;;;6.90;98.90;;;;;;5156057;27;20053;-80
2021/12/28 09:07:39;;;;;;;29.20;13.80;;;7.00;98.80;;;;;;5138409;27;20077;-80
2021/12/28 09:10:06;;;;;;;35.53;14.45;;;7.00;98.80;;;;;;5138522;27;20037;-80
2021/12/28 09:12:31;;;;;;;38.55;21.63;;;7.00;98.80;;;;;;5139102;27;20089;-79
2021/12/28 09:14:57;;;;;;;44.20;25.50;;;7.00;98.70;;;;;;5156033;27;20038;-79
2021/12/28 09:17:23;;;;;;;28.92;15.40;;;7.00;98.70;;;;;;5138902;27;20175;-80
2021/12/28 09:19:51;;;;;;;39.30;19.38;;;7.00;98.80;;;;;;5138796;27;20030;-79
2021/12/28 09:22:17;;;;;;;46.92;22.35;;;7.00;98.80;;;;;;5138398;27;20113;-79
2021/12/28 09:24:43;;;;;;;38.25;18.30;;;7.10;98.80;;;;;;5138956;27;20461;-80
2021/12/28 09:27:08;;;;;;;34.70;15.32;;;7.10;98.70;;;;;;5140743;27;20045;-80
2021/12/28 09:29:35;;;;;;;38.85;16.60;;;7.10;98.80;;;;;;5142980;27;20095;-80
2021/12/28 09:32:02;;;;;;;33.45;16.05;;;7.20;98.90;;;;;;5160242;27;20053;-79
2021/12/28 09:34:28;;;;;;;34.83;15.65;;;7.10;98.90;;;;;;5143166;27;20649;-79
2021/12/28 09:36:54;;;;;;;32.72;15.88;;;7.10;98.90;;;;;;5160466;27;20061;-79
2021/12/28 09:39:22;;;;;;;39.33;16.63;;;7.10;98.80;;;;;;5143139;27;20081;-79
2021/12/28 09:41:53;;;;;;;44.33;19.42;;;7.20;98.80;;;;;;5142948;27;20404;-79
2021/12/28 09:44:19;;;;;;;39.63;19.40;;;7.20;98.70;;;;;;5159953;27;20038;-80
2021/12/28 09:46:44;;;;;;;44.90;17.90;;;7.10;98.70;;;;;;5142663;27;20034;-78
2021/12/28 09:49:10;;;;;;;38.95;17.05;;;7.10;98.70;;;;;;5108659;27;20038;-79
2021/12/28 09:51:36;;;;;;;41.03;18.70;;;7.10;98.70;;;;;;5159833;27;20083;-79
2021/12/28 09:54:02;;;;;;;40.50;19.15;;;7.10;98.60;;;;;;5160077;27;20095;-79
2021/12/28 09:56:28;;;;;;;51.15;25.50;;;7.10;98.60;;;;;;5159699;27;20049;-79
2021/12/28 09:58:54;;;;;;;66.93;34.42;;;7.10;98.70;;;;;;5142458;27;20034;-79
2021/12/28 10:01:20;;;;;;;58.05;29.90;;;7.10;98.80;;;;;;5159421;27;20038;-80
2021/12/28 10:03:47;;;;;;;45.17;22.92;;;7.10;98.90;;;;;;5142634;27;20030;-80
2021/12/28 10:06:22;;;;;;;49.28;24.50;;;7.10;98.80;;;;;;5159831;27;20505;-79
2021/12/28 10:09:02;;;;;;;46.67;22.92;;;7.10;98.80;;;;;;5159435;27;20048;-79
2021/12/28 10:11:33;;;;;;;67.15;36.35;;;7.10;98.90;;;;;;5159483;27;20057;-79
2021/12/28 10:14:23;;;;;;;46.95;25.42;;;7.10;98.90;;;;;;5159667;27;20049;-81
2021/12/28 10:16:52;;;;;;;46.97;23.80;;;7.20;99.00;;;;;;5159699;27;20076;-80
2021/12/28 10:19:41;;;;;;;69.65;36.03;;;7.20;98.90;;;;;;5159373;27;20042;-80
2021/12/28 10:22:25;;;;;;;42.67;21.23;;;7.30;99.00;;;;;;5141265;27;20120;-79
2021/12/28 10:25:05;;;;;;;56.80;27.83;;;7.30;98.90;;;;;;5158448;27;20046;-79
2021/12/28 10:27:32;;;;;;;47.55;25.40;;;7.30;99.00;;;;;;5159176;27;20034;-79
2021/12/28 10:30:21;;;;;;;47.45;23.80;;;7.30;99.00;;;;;;5159075;27;20065;-79
2021/12/28 10:32:50;;;;;;;51.75;25.27;;;7.40;99.00;;;;;;5141851;27;20038;-80
2021/12/28 10:35:23;;;;;;;43.92;23.15;;;7.30;99.00;;;;;;5141592;27;20037;-81
2021/12/28 10:37:52;;;;;;;41.28;22.08;;;7.30;99.00;;;;;;5158947;27;20514;-80
2021/12/28 10:40:46;;;;;;;70.43;31.85;;;7.40;99.00;;;;;;5158034;27;20038;-80
2021/12/28 10:43:21;;;;;;;61.90;35.22;;;7.40;99.00;;;;;;5158840;27;20034;-80
2021/12/28 10:45:54;;;;;;;42.42;21.92;;;7.50;99.10;;;;;;5141465;27;20030;-80
2021/12/28 10:48:26;;;;;;;38.67;23.48;;;7.50;98.90;;;;;;5159041;27;20030;-79
2021/12/28 10:50:55;;;;;;;60.75;29.77;;;7.50;98.80;;;;;;5158692;27;20488;-79
2021/12/28 10:53:25;;;;;;;37.55;20.75;;;7.60;98.80;;;;;;5158901;27;20042;-79
2021/12/28 10:55:57;;;;;;;54.17;26.15;;;7.60;98.80;;;;;;5158675;27;20523;-80
2021/12/28 10:58:28;;;;;;;47.70;25.33;;;7.60;98.80;;;;;;5141342;27;20045;-79
2021/12/28 11:00:59;;;;;;;55.17;26.30;;;7.60;99.00;;;;;;5158587;27;20121;-79
2021/12/28 11:03:30;;;;;;;72.28;36.10;;;7.60;98.90;;;;;;5140828;27;20078;-79
2021/12/28 11:05:59;;;;;;;136.05;67.45;;;7.60;99.00;;;;;;5158372;27;20046;-79
2021/12/28 11:08:28;;;;;;;94.75;66.22;;;7.60;99.10;;;;;;5158314;27;20065;-79
2021/12/28 11:11:00;;;;;;;36.13;18.20;;;7.60;99.00;;;;;;5158363;27;20035;-79
2021/12/28 11:13:31;;;;;;;25.98;14.43;;;7.60;99.00;;;;;;5158296;27;20046;-79
2021/12/28 11:15:59;;;;;;;26.73;16.55;;;7.60;99.00;;;;;;5158417;27;20042;-79
2021/12/28 11:18:33;;;;;;;33.25;17.98;;;7.60;99.00;;;;;;5123946;27;20042;-79
2021/12/28 11:21:08;;;;;;;23.02;13.75;;;7.60;99.00;;;;;;5158149;27;20046;-80
2021/12/28 11:23:34;;;;;;;23.92;14.02;;;7.70;99.00;;;;;;5158068;27;20039;-79
2021/12/28 11:26:02;;;;;;;25.58;14.95;;;7.70;99.20;;;;;;5158281;27;20393;-80
2021/12/28 11:28:29;;;;;;;23.83;14.13;;;7.70;99.00;;;;;;5157889;27;20512;-77
2021/12/28 11:31:04;;;;;;;24.77;15.57;;;7.80;99.00;;;;;;5158219;27;20065;-78
2021/12/28 11:33:59;;;;;;;28.50;16.67;;;7.80;99.10;;;;;;5157897;27;20080;-77
2021/12/28 11:36:37;;;;;;;;;;;7.80;99.10;;;;;;5156332;27;20379;-78
2021/12/28 11:39:08;;;;;;;24.45;15.05;;;7.90;99.10;;;;;;5140422;27;19915;-79
2021/12/28 11:41:34;;;;;;;20.65;12.32;;;7.90;99.20;;;;;;5140446;27;20045;-78
2021/12/28 11:44:00;;;;;;;16.92;11.77;;;7.90;99.20;;;;;;5140137;27;20064;-79
2021/12/28 11:46:27;;;;;;;17.70;11.80;;;7.90;99.10;;;;;;5157599;27;20111;-78
2021/12/28 11:48:53;;;;;;;18.92;11.15;;;7.90;99.00;;;;;;5140764;27;20371;-78
2021/12/28 11:51:20;;;;;;;17.95;10.75;;;7.90;99.20;;;;;;5134325;27;20070;-78
2021/12/28 11:53:47;;;;;;;15.30;10.15;;;8.00;99.10;;;;;;5134348;27;20121;-80
2021/12/28 11:56:17;;;;;;;12.90;9.43;;;8.00;99.20;;;;;;5152305;27;20034;-80
2021/12/28 11:58:58;;;;;;;14.10;9.07;;;8.00;99.10;;;;;;5151173;27;20629;-79
2021/12/28 12:01:52;;;;;;;14.93;10.13;;;8.00;99.00;;;;;;5150267;27;20094;-81
2021/12/28 12:04:30;;;;;;;15.23;10.95;;;8.00;99.10;;;;;;5134046;27;20132;-79
2021/12/28 12:07:04;;;;;;;14.55;10.48;;;8.00;99.00;;;;;;5151768;27;20094;-81
2021/12/28 12:09:32;;;;;;;23.33;17.90;;;8.10;99.10;;;;;;5134302;27;20067;-82
2021/12/28 12:12:22;;;;;;;17.42;11.07;;;8.10;99.10;;;;;;5132758;27;20057;-79
2021/12/28 12:14:54;;;;;;;16.92;11.50;;;8.10;99.00;;;;;;5151010;27;20405;-80
2021/12/28 12:17:29;;;;;;;35.78;26.80;;;8.10;99.10;;;;;;5151213;27;20129;-79
2021/12/28 12:20:22;;;;;;;17.90;11.40;;;8.10;99.30;;;;;;5132352;27;20075;-78
2021/12/28 12:23:10;;;;;;;15.23;10.13;;;8.10;99.30;;;;;;5150883;27;20065;-78
2021/12/28 12:25:41;;;;;;;19.40;12.25;;;8.10;99.20;;;;;;5133714;27;20482;-78
2021/12/28 12:28:08;;;;;;;24.27;20.05;;;8.10;99.20;;;;;;5133567;27;20038;-79
2021/12/28 12:30:33;;;;;;;29.00;23.20;;;8.10;99.20;;;;;;5149833;27;20034;-79
2021/12/28 12:33:06;;;;;;;25.65;17.25;;;8.10;99.10;;;;;;5150994;27;20049;-80
2021/12/28 12:35:54;;;;;;;14.70;10.88;;;8.20;99.10;;;;;;5149001;27;20045;-79
2021/12/28 12:38:26;;;;;;;30.30;18.75;;;8.10;99.00;;;;;;5154003;27;20043;-80
2021/12/28 12:40:54;;;;;;;29.17;17.13;;;8.10;99.10;;;;;;5139559;27;20076;-79